Agua Fria, New Mexico
Current Conditions -  °F | °C
As of 2:53 PM on Thursday 23 Oct 2014 (Local Time) from KSAF Reporting Station
Clear Clear  
Wind Chill: 69°   Ceiling: Unl
Heat Index: 69°   Visibility: 10mi
Dew Point: 33°   Wind: 3mph
Humidity: 26%   Direction: NA
Pressure: 30.23"   Gusts: NA
Location:  35.7017°N, 105.921°W
Report Text: KSAF 232053Z VRB03KT 10SM CLR 21/01 A3023 RMK AO2 SLP168 T02060006 58022
Loading
Personal Weather Stations






























Interactive Weather Map
Tropical Storm Tracking
New forecast layout! Learn more

10-Day Weather Forecast

Advertisements
Track Severe Weather on mobile